createdAt,value
2018-10-01T00:00:47.468Z,943.66
2018-10-01T00:01:47.459Z,943.63
2018-10-01T00:02:47.483Z,943.65
2018-10-01T00:03:47.458Z,943.67
2018-10-01T00:04:47.459Z,943.61
2018-10-01T00:05:47.470Z,943.67
2018-10-01T00:06:47.437Z,943.64
2018-10-01T00:07:47.431Z,943.61
2018-10-01T00:08:47.428Z,943.61
2018-10-01T00:09:47.427Z,943.62
2018-10-01T00:10:47.419Z,943.66
2018-10-01T00:11:47.446Z,943.61
2018-10-01T00:12:47.418Z,943.60
2018-10-01T00:13:47.407Z,943.56
2018-10-01T00:14:47.400Z,943.58
2018-10-01T00:15:47.402Z,943.54
2018-10-01T00:16:47.389Z,943.56
2018-10-01T00:17:47.447Z,943.55
2018-10-01T00:18:47.387Z,943.52
2018-10-01T00:19:47.375Z,943.53
2018-10-01T00:20:47.373Z,943.51
2018-10-01T00:21:47.369Z,943.50
2018-10-01T00:22:47.363Z,943.49
2018-10-01T00:23:47.359Z,943.46
2018-10-01T00:24:47.352Z,943.47
2018-10-01T00:25:47.351Z,943.50
2018-10-01T00:26:47.402Z,943.48
2018-10-01T00:27:47.344Z,943.39
2018-10-01T00:28:47.332Z,943.44
2018-10-01T00:29:47.343Z,943.43
2018-10-01T00:30:47.330Z,943.38
2018-10-01T00:31:47.325Z,943.41
2018-10-01T00:32:47.334Z,943.36
2018-10-01T00:33:47.314Z,943.33
2018-10-01T00:34:47.311Z,943.37
2018-10-01T00:35:47.304Z,943.35
2018-10-01T00:36:47.301Z,943.31
2018-10-01T00:37:47.293Z,943.33
2018-10-01T00:38:47.291Z,943.31
2018-10-01T00:39:47.290Z,943.29
2018-10-01T00:40:47.279Z,943.30
2018-10-01T00:41:47.298Z,943.27
2018-10-01T00:42:47.313Z,943.27
2018-10-01T00:43:47.302Z,943.24
2018-10-01T00:44:47.261Z,943.17
2018-10-01T00:45:47.262Z,943.14
2018-10-01T00:46:47.256Z,943.20
2018-10-01T00:47:47.262Z,943.22
2018-10-01T00:48:47.245Z,943.27
2018-10-01T00:49:47.281Z,943.21
2018-10-01T00:50:47.241Z,943.18
2018-10-01T00:51:47.231Z,943.17
2018-10-01T00:52:47.229Z,943.15
2018-10-01T00:53:47.223Z,943.19
2018-10-01T00:54:47.214Z,943.17
2018-10-01T00:55:47.212Z,943.12
2018-10-01T00:56:47.275Z,943.18
2018-10-01T00:57:47.202Z,943.16
2018-10-01T00:58:47.196Z,943.10
2018-10-01T00:59:47.197Z,943.15
2018-10-01T01:00:47.190Z,943.14
2018-10-01T01:01:47.219Z,943.16
2018-10-01T01:02:47.200Z,943.12
2018-10-01T01:03:47.176Z,943.14
2018-10-01T01:04:47.170Z,943.13
2018-10-01T01:05:47.166Z,943.16
2018-10-01T01:06:47.162Z,943.14
2018-10-01T01:07:47.156Z,943.10
2018-10-01T01:08:47.155Z,943.17
2018-10-01T01:09:47.203Z,943.16
2018-10-01T01:10:47.142Z,943.15
2018-10-01T01:11:47.180Z,943.11
2018-10-01T01:12:47.132Z,943.12
2018-10-01T01:13:47.191Z,943.12
2018-10-01T01:14:47.122Z,943.09
2018-10-01T01:15:47.124Z,943.08
2018-10-01T01:16:47.175Z,943.05
2018-10-01T01:17:47.141Z,943.07
2018-10-01T01:18:47.104Z,943.09
2018-10-01T01:19:47.108Z,943.10
2018-10-01T01:20:47.135Z,943.08
2018-10-01T01:21:47.086Z,943.05
2018-10-01T01:22:47.088Z,943.02
2018-10-01T01:23:47.090Z,943.02
2018-10-01T01:24:47.080Z,942.99
2018-10-01T01:25:47.073Z,943.01
2018-10-01T01:26:47.133Z,943.05
2018-10-01T01:27:47.064Z,943.05
2018-10-01T01:28:47.064Z,942.94
2018-10-01T02:07:07.641Z,942.55
2018-10-01T02:08:07.604Z,942.57
2018-10-01T02:10:00.535Z,942.58
2018-10-01T02:11:00.510Z,942.51
2018-10-01T02:12:53.437Z,942.55
2018-10-01T02:13:53.421Z,942.56
2018-10-01T02:15:46.375Z,942.58
2018-10-01T02:16:46.348Z,942.48
2018-10-01T02:18:39.311Z,942.55
2018-10-01T02:19:39.264Z,942.57
2018-10-01T02:21:32.210Z,942.56
2018-10-01T02:22:32.190Z,942.58
2018-10-01T02:24:25.117Z,942.57
2018-10-01T02:25:25.091Z,942.60
2018-10-01T02:27:18.119Z,942.57
2018-10-01T02:28:18.105Z,942.60
2018-10-01T02:30:11.054Z,942.61
2018-10-01T02:31:11.021Z,942.57
2018-10-01T02:33:03.965Z,942.54
2018-10-01T02:34:03.962Z,942.54
2018-10-01T02:35:56.891Z,942.57
2018-10-01T02:36:56.869Z,942.56
2018-10-01T02:38:49.794Z,942.54
2018-10-01T02:39:49.780Z,942.49
2018-10-01T02:41:42.736Z,942.48
2018-10-01T02:42:42.711Z,942.46
2018-10-01T02:44:35.650Z,942.51
2018-10-01T02:45:35.635Z,942.53
2018-10-01T02:46:35.629Z,942.48
2018-10-01T02:47:35.648Z,942.51
2018-10-01T02:48:35.615Z,942.52
2018-10-01T02:49:35.613Z,942.52
2018-10-01T02:50:35.609Z,942.52
2018-10-01T02:51:35.606Z,942.49
2018-10-01T02:52:35.601Z,942.49
2018-10-01T02:53:35.598Z,942.43
2018-10-01T02:54:35.595Z,942.46
2018-10-01T02:55:35.585Z,942.47
2018-10-01T02:56:35.581Z,942.42
2018-10-01T02:57:35.576Z,942.41
2018-10-01T02:58:35.575Z,942.43
2018-10-01T02:59:35.574Z,942.42
2018-10-01T03:00:35.562Z,942.45
2018-10-01T03:01:35.559Z,942.39
2018-10-01T03:02:35.560Z,942.38
2018-10-01T03:03:35.551Z,942.40
2018-10-01T03:04:35.551Z,942.37
2018-10-01T03:05:35.539Z,942.35
2018-10-01T03:06:35.540Z,942.33
2018-10-01T03:07:35.542Z,942.32
2018-10-01T03:08:35.528Z,942.29
2018-10-01T03:09:35.524Z,942.30
2018-10-01T03:10:35.520Z,942.29
2018-10-01T03:11:35.515Z,942.31
2018-10-01T03:12:35.509Z,942.36
2018-10-01T03:13:35.504Z,942.32
2018-10-01T03:14:35.501Z,942.39
2018-10-01T03:15:35.500Z,942.38
2018-10-01T03:16:35.499Z,942.47
2018-10-01T03:17:35.488Z,942.44
2018-10-01T03:18:35.487Z,942.44
2018-10-01T03:19:35.481Z,942.44
2018-10-01T03:20:35.469Z,942.47
2018-10-01T03:21:35.466Z,942.45
2018-10-01T03:22:35.469Z,942.47
2018-10-01T03:23:35.460Z,942.48
2018-10-01T03:24:35.484Z,942.50
2018-10-01T03:25:35.497Z,942.48
2018-10-01T03:26:35.444Z,942.50
2018-10-01T03:27:35.459Z,942.47
2018-10-01T03:28:35.437Z,942.51
2018-10-01T03:29:35.438Z,942.47
2018-10-01T03:30:35.428Z,942.43
2018-10-01T03:31:35.428Z,942.46
2018-10-01T03:32:35.426Z,942.44
2018-10-01T03:33:35.419Z,942.40
2018-10-01T03:34:35.409Z,942.42
2018-10-01T03:35:35.409Z,942.41
2018-10-01T03:36:35.410Z,942.40
2018-10-01T03:37:35.402Z,942.37
2018-10-01T03:38:35.399Z,942.39
2018-10-01T03:39:35.397Z,942.37
2018-10-01T03:40:35.384Z,942.36
2018-10-01T03:41:35.385Z,942.38
2018-10-01T03:42:35.445Z,942.40
2018-10-01T03:43:35.371Z,942.41
2018-10-01T03:44:35.373Z,942.40
2018-10-01T03:45:35.365Z,942.35
2018-10-01T03:46:35.362Z,942.36
2018-10-01T03:47:35.357Z,942.40
2018-10-01T03:48:35.355Z,942.31
2018-10-01T03:49:35.351Z,942.42
2018-10-01T03:50:35.345Z,942.42
2018-10-01T03:51:35.331Z,942.39
2018-10-01T03:52:35.334Z,942.38
2018-10-01T03:53:35.334Z,942.43
2018-10-01T03:54:35.323Z,942.39
2018-10-01T03:55:35.343Z,942.44
2018-10-01T03:56:35.317Z,942.45
2018-10-01T03:57:35.310Z,942.47
2018-10-01T03:58:35.305Z,942.44
2018-10-01T03:59:35.304Z,942.42
2018-10-01T04:00:35.299Z,942.47
2018-10-01T04:01:35.292Z,942.46
2018-10-01T04:02:35.287Z,942.46
2018-10-01T04:03:35.282Z,942.44
2018-10-01T04:04:35.286Z,942.44
2018-10-01T04:05:35.277Z,942.44
2018-10-01T04:06:35.274Z,942.44
2018-10-01T04:07:35.272Z,942.42
2018-10-01T04:08:35.262Z,942.42
2018-10-01T04:09:35.263Z,942.44
2018-10-01T04:10:35.259Z,942.42
2018-10-01T04:11:35.247Z,942.41
2018-10-01T04:12:35.244Z,942.39
2018-10-01T04:13:35.241Z,942.41
2018-10-01T04:14:35.232Z,942.38
2018-10-01T04:15:35.227Z,942.36
2018-10-01T04:16:35.226Z,942.32
2018-10-01T04:17:35.218Z,942.39
2018-10-01T04:18:35.215Z,942.42
2018-10-01T04:19:35.218Z,942.36
2018-10-01T04:20:35.213Z,942.39
2018-10-01T04:21:35.201Z,942.39
2018-10-01T04:22:35.199Z,942.40
2018-10-01T04:23:35.194Z,942.38
2018-10-01T04:24:35.199Z,942.39
2018-10-01T04:25:35.206Z,942.33
2018-10-01T04:26:35.222Z,942.32
2018-10-01T04:27:36.108Z,942.30
2018-10-01T04:28:36.105Z,942.23
2018-10-01T04:29:36.105Z,942.20
2018-10-01T04:30:35.249Z,942.12
2018-10-01T04:31:35.168Z,942.09
2018-10-01T04:32:35.182Z,942.10
2018-10-01T04:33:35.165Z,942.10
2018-10-01T04:34:35.174Z,942.13
2018-10-01T04:35:35.177Z,942.18
2018-10-01T04:36:35.236Z,942.18
2018-10-01T04:37:35.704Z,942.21
2018-10-01T04:38:35.155Z,942.19
2018-10-01T04:39:35.152Z,942.23
2018-10-01T04:40:35.137Z,942.20
2018-10-01T04:41:35.129Z,942.19
2018-10-01T04:42:35.133Z,942.21
2018-10-01T04:43:35.131Z,942.25
2018-10-01T04:44:35.132Z,942.26
2018-10-01T04:45:35.144Z,942.27
2018-10-01T04:46:35.145Z,942.29
2018-10-01T04:47:35.166Z,942.28
2018-10-01T04:48:35.168Z,942.29
2018-10-01T04:49:35.141Z,942.33
2018-10-01T04:50:35.092Z,942.34
2018-10-01T04:51:35.077Z,942.39
2018-10-01T04:52:35.068Z,942.39
2018-10-01T04:53:35.050Z,942.42
2018-10-01T04:54:35.060Z,942.39
2018-10-01T04:55:35.049Z,942.37
2018-10-01T04:56:35.050Z,942.40
2018-10-01T04:57:35.048Z,942.39
2018-10-01T04:58:35.162Z,942.37
2018-10-01T04:59:35.036Z,942.42
2018-10-01T05:00:35.031Z,942.41
2018-10-01T05:01:35.030Z,942.42
2018-10-01T05:02:35.021Z,942.42
2018-10-01T05:03:35.054Z,942.42
2018-10-01T05:04:35.015Z,942.34
2018-10-01T05:05:35.011Z,942.32
2018-10-01T05:06:35.076Z,942.36
2018-10-01T05:07:35.085Z,942.35
2018-10-01T05:08:34.994Z,942.38
2018-10-01T05:09:34.998Z,942.33
2018-10-01T05:10:34.985Z,942.38
2018-10-01T05:11:34.987Z,942.36
2018-10-01T05:12:34.974Z,942.36
2018-10-01T05:13:34.970Z,942.36
2018-10-01T05:14:34.973Z,942.40
2018-10-01T05:15:34.965Z,942.39
2018-10-01T05:16:34.960Z,942.43
2018-10-01T05:17:34.950Z,942.46
2018-10-01T05:18:34.953Z,942.45
2018-10-01T05:19:34.959Z,942.45
2018-10-01T05:20:34.966Z,942.50
2018-10-01T05:21:34.927Z,942.49
2018-10-01T05:22:34.956Z,942.48
2018-10-01T05:23:34.984Z,942.53
2018-10-01T05:24:34.921Z,942.51
2018-10-01T05:25:34.914Z,942.48
2018-10-01T05:26:35.011Z,942.47
2018-10-01T05:27:34.912Z,942.49
2018-10-01T05:28:34.901Z,942.49
2018-10-01T05:29:34.902Z,942.46
2018-10-01T05:30:34.923Z,942.55
2018-10-01T05:31:34.886Z,942.53
2018-10-01T05:32:34.943Z,942.52
2018-10-01T05:33:34.912Z,942.52
2018-10-01T05:34:34.873Z,942.54
2018-10-01T05:35:34.867Z,942.48
2018-10-01T05:36:34.940Z,942.54
2018-10-01T05:37:34.873Z,942.54
2018-10-01T05:38:34.852Z,942.57
2018-10-01T05:39:34.878Z,942.59
2018-10-01T05:40:34.869Z,942.56
2018-10-01T05:41:34.839Z,942.58
2018-10-01T05:42:34.841Z,942.57
2018-10-01T05:43:34.837Z,942.60
2018-10-01T05:44:34.825Z,942.61
2018-10-01T05:45:34.824Z,942.62
2018-10-01T05:46:34.820Z,942.62
2018-10-01T05:47:34.812Z,942.65
2018-10-01T05:48:34.849Z,942.67
2018-10-01T05:49:34.855Z,942.65
2018-10-01T05:50:34.796Z,942.69
2018-10-01T05:51:34.794Z,942.68
2018-10-01T05:52:34.787Z,942.70
2018-10-01T05:53:34.783Z,942.74
2018-10-01T05:54:34.780Z,942.74
2018-10-01T05:55:34.774Z,942.76
2018-10-01T05:56:34.769Z,942.72
2018-10-01T05:57:34.805Z,942.75
2018-10-01T05:58:34.762Z,942.77
2018-10-01T05:59:34.806Z,942.78
2018-10-01T06:00:34.754Z,942.80
2018-10-01T06:01:34.744Z,942.79
2018-10-01T06:02:34.738Z,942.75
2018-10-01T06:03:34.734Z,942.76
2018-10-01T06:04:34.792Z,942.75
2018-10-01T06:05:34.724Z,942.80
2018-10-01T06:06:34.722Z,942.78
2018-10-01T06:07:34.721Z,942.76
2018-10-01T06:08:34.715Z,942.78
2018-10-01T06:09:34.707Z,942.80
2018-10-01T06:10:34.709Z,942.79
2018-10-01T06:11:34.697Z,942.80
2018-10-01T06:12:34.706Z,942.78
2018-10-01T06:13:34.693Z,942.78
2018-10-01T06:14:34.683Z,942.75
2018-10-01T06:15:34.673Z,942.75
2018-10-01T06:16:34.673Z,942.76
2018-10-01T06:17:34.668Z,942.86
2018-10-01T06:18:34.666Z,942.81
2018-10-01T06:19:34.656Z,942.91
2018-10-01T06:20:34.655Z,942.87
2018-10-01T06:21:34.650Z,942.92
2018-10-01T06:22:34.644Z,942.91
2018-10-01T06:23:34.655Z,942.97
2018-10-01T06:24:34.638Z,942.93
2018-10-01T06:25:34.633Z,942.93
2018-10-01T06:26:34.625Z,942.99
2018-10-01T06:27:34.618Z,942.99
2018-10-01T06:28:34.616Z,942.96
2018-10-01T06:29:34.614Z,943.01
2018-10-01T06:30:34.608Z,943.06
2018-10-01T06:31:34.597Z,943.13
2018-10-01T06:32:34.622Z,943.12
2018-10-01T06:33:34.595Z,943.17
2018-10-01T06:34:34.590Z,943.19
2018-10-01T06:35:34.582Z,943.19
2018-10-01T06:36:34.573Z,943.27
2018-10-01T06:37:34.637Z,943.24
2018-10-01T06:38:34.561Z,943.25
2018-10-01T06:39:34.557Z,943.31
2018-10-01T06:40:34.556Z,943.25
2018-10-01T06:41:34.559Z,943.27
2018-10-01T06:42:34.544Z,943.30
2018-10-01T06:43:34.540Z,943.27
2018-10-01T06:44:34.535Z,943.29
2018-10-01T06:45:34.531Z,943.32
2018-10-01T06:46:34.527Z,943.36
2018-10-01T06:47:34.522Z,943.39
2018-10-01T06:48:34.517Z,943.48
2018-10-01T06:49:34.512Z,943.55
2018-10-01T06:50:34.545Z,943.60
2018-10-01T06:51:34.544Z,943.60
2018-10-01T06:52:34.553Z,943.61
2018-10-01T06:53:34.559Z,943.63
2018-10-01T06:54:34.482Z,943.60
2018-10-01T06:55:34.490Z,943.73
2018-10-01T06:56:34.474Z,943.73
2018-10-01T06:57:34.472Z,943.80
2018-10-01T06:58:34.468Z,943.78
2018-10-01T06:59:34.459Z,943.83
2018-10-01T07:00:34.457Z,943.87
2018-10-01T07:01:34.449Z,943.91
2018-10-01T07:02:34.448Z,943.87
2018-10-01T07:03:34.445Z,943.96
2018-10-01T07:04:34.440Z,943.94
2018-10-01T07:05:34.445Z,943.99
2018-10-01T07:06:34.434Z,944.01
2018-10-01T07:07:34.424Z,944.04
2018-10-01T07:08:34.420Z,944.08
2018-10-01T07:09:34.413Z,944.13
2018-10-01T07:10:34.410Z,944.15
2018-10-01T07:11:34.442Z,944.19
2018-10-01T07:12:34.401Z,944.22
2018-10-01T07:13:34.394Z,944.26
2018-10-01T07:14:34.387Z,944.29
2018-10-01T07:15:34.380Z,944.32
2018-10-01T07:16:34.431Z,944.35
2018-10-01T07:17:34.381Z,944.38
2018-10-01T07:18:34.376Z,944.37
2018-10-01T07:19:34.368Z,944.44
2018-10-01T07:20:34.371Z,944.45
2018-10-01T07:21:34.355Z,944.42
2018-10-01T07:22:34.424Z,944.45
2018-10-01T07:23:34.354Z,944.53
2018-10-01T07:24:34.340Z,944.54
2018-10-01T07:25:34.339Z,944.54
2018-10-01T07:26:34.328Z,944.59
2018-10-01T07:27:34.326Z,944.64
2018-10-01T07:28:34.324Z,944.59
2018-10-01T07:29:34.321Z,944.59
2018-10-01T07:30:34.316Z,944.62
2018-10-01T07:31:34.304Z,944.64
2018-10-01T07:32:34.301Z,944.63
2018-10-01T07:33:34.291Z,944.69
2018-10-01T07:34:34.293Z,944.73
2018-10-01T07:35:34.277Z,944.75
2018-10-01T07:36:34.284Z,944.74
2018-10-01T07:37:34.272Z,944.76
2018-10-01T07:38:34.268Z,944.78
2018-10-01T07:39:34.268Z,944.82
2018-10-01T07:40:34.264Z,944.83
2018-10-01T07:41:34.255Z,944.86
2018-10-01T07:42:34.250Z,944.86
2018-10-01T07:43:34.248Z,944.90
2018-10-01T07:44:34.256Z,944.87
2018-10-01T07:45:34.238Z,944.91
2018-10-01T07:46:34.229Z,944.93
2018-10-01T07:47:34.224Z,944.95
2018-10-01T07:48:34.219Z,944.97
2018-10-01T07:49:34.221Z,944.90
2018-10-01T07:50:34.243Z,944.96
2018-10-01T07:51:34.201Z,944.98
2018-10-01T07:52:34.218Z,944.97
2018-10-01T07:53:34.324Z,944.97
2018-10-01T07:54:34.188Z,944.99
2018-10-01T07:55:34.183Z,944.96
2018-10-01T07:56:34.185Z,944.95
2018-10-01T07:57:34.185Z,944.95
2018-10-01T07:58:34.168Z,945.03
2018-10-01T07:59:34.186Z,944.99
2018-10-01T08:00:34.159Z,945.03
2018-10-01T08:01:34.165Z,945.03
2018-10-01T08:02:34.193Z,944.99
2018-10-01T08:03:34.149Z,945.03
2018-10-01T08:04:34.141Z,945.12
2018-10-01T08:05:34.169Z,945.06
2018-10-01T08:06:34.130Z,945.08
2018-10-01T08:07:34.128Z,945.12
2018-10-01T08:08:34.181Z,945.17
2018-10-01T08:09:34.192Z,945.22
2018-10-01T08:10:34.121Z,945.26
2018-10-01T08:11:34.105Z,945.25
2018-10-01T08:12:34.101Z,945.31
2018-10-01T08:13:34.096Z,945.35
2018-10-01T08:14:34.152Z,945.32
2018-10-01T08:15:34.088Z,945.31
2018-10-01T08:16:34.085Z,945.36
2018-10-01T08:17:34.077Z,945.37
2018-10-01T08:18:34.079Z,945.31
2018-10-01T08:19:34.080Z,945.27
2018-10-01T08:20:34.073Z,945.24
2018-10-01T08:21:34.062Z,945.27
2018-10-01T08:22:34.059Z,945.24
2018-10-01T08:23:34.081Z,945.30
2018-10-01T08:24:34.049Z,945.34
2018-10-01T08:25:34.046Z,945.40
2018-10-01T08:26:34.050Z,945.39
2018-10-01T08:27:34.034Z,945.44
2018-10-01T08:28:34.031Z,945.47
2018-10-01T08:29:34.079Z,945.45
2018-10-01T08:30:34.025Z,945.51
2018-10-01T08:31:34.024Z,945.52
2018-10-01T08:32:34.078Z,945.60
2018-10-01T08:33:34.011Z,945.55
2018-10-01T08:34:34.006Z,945.65
2018-10-01T08:35:34.069Z,945.62
2018-10-01T08:36:34.000Z,945.72
2018-10-01T08:37:33.998Z,945.71
2018-10-01T08:38:34.115Z,945.76
2018-10-01T08:39:33.993Z,945.78
2018-10-01T08:40:33.979Z,945.78
2018-10-01T08:41:34.007Z,945.83
2018-10-01T08:42:33.971Z,945.96
2018-10-01T08:43:33.971Z,945.83
2018-10-01T08:44:34.005Z,945.85
2018-10-01T08:45:33.965Z,945.93
2018-10-01T08:46:33.965Z,945.94
2018-10-01T08:47:33.993Z,945.96
2018-10-01T08:48:33.955Z,945.99
2018-10-01T08:49:33.955Z,945.98
2018-10-01T08:50:33.965Z,946.01
2018-10-01T08:51:33.981Z,946.09
2018-10-01T08:52:33.935Z,946.07
2018-10-01T08:53:34.017Z,946.08
2018-10-01T08:54:33.936Z,946.09
2018-10-01T08:55:33.938Z,946.13
2018-10-01T08:56:33.992Z,946.13
2018-10-01T08:57:33.920Z,946.18
2018-10-01T08:58:33.914Z,946.18
2018-10-01T08:59:33.994Z,946.20
2018-10-01T09:00:33.904Z,946.22
2018-10-01T09:01:33.916Z,946.28
2018-10-01T09:02:33.960Z,946.24
2018-10-01T09:03:33.893Z,946.26
2018-10-01T09:04:33.894Z,946.27
2018-10-01T09:05:33.916Z,946.28
2018-10-01T09:06:33.880Z,946.30
2018-10-01T09:07:33.881Z,946.28
2018-10-01T09:08:33.911Z,946.30
2018-10-01T09:09:33.874Z,946.31
2018-10-01T09:10:33.871Z,946.34
2018-10-01T09:11:33.898Z,946.36
2018-10-01T09:12:33.855Z,946.34
2018-10-01T09:13:33.849Z,946.37
2018-10-01T09:14:33.972Z,946.39
2018-10-01T09:15:33.846Z,946.39
2018-10-01T09:16:33.845Z,946.40
2018-10-01T09:17:33.904Z,946.43
2018-10-01T09:18:33.828Z,946.36
2018-10-01T09:19:33.829Z,946.37
2018-10-01T09:20:33.883Z,946.38
2018-10-01T09:21:33.825Z,946.41
2018-10-01T09:22:33.813Z,946.39
2018-10-01T09:23:33.875Z,946.42
2018-10-01T09:24:33.804Z,946.41
2018-10-01T09:25:33.800Z,946.42
2018-10-01T09:26:33.864Z,946.42
2018-10-01T09:27:33.791Z,946.42
2018-10-01T09:28:33.790Z,946.46
2018-10-01T09:29:33.843Z,946.45
2018-10-01T09:30:33.780Z,946.45
2018-10-01T09:31:33.778Z,946.47
2018-10-01T09:32:33.825Z,946.51
2018-10-01T09:33:33.769Z,946.51
2018-10-01T09:34:33.769Z,946.50
2018-10-01T09:35:33.836Z,946.49
2018-10-01T09:36:33.765Z,946.50
2018-10-01T09:37:33.753Z,946.51
2018-10-01T09:38:33.825Z,946.50
2018-10-01T09:39:33.748Z,946.52
2018-10-01T09:40:33.772Z,946.48
2018-10-01T09:41:33.742Z,946.48
2018-10-01T09:42:33.735Z,946.51
2018-10-01T09:43:33.733Z,946.56
2018-10-01T09:44:33.767Z,946.53
2018-10-01T09:45:33.725Z,946.53
2018-10-01T09:46:33.762Z,946.59
2018-10-01T09:47:33.717Z,946.56
2018-10-01T09:48:33.715Z,946.57
2018-10-01T09:49:33.707Z,946.59
2018-10-01T09:50:33.729Z,946.59
2018-10-01T09:51:33.710Z,946.58
2018-10-01T09:52:33.747Z,946.58
2018-10-01T09:53:33.698Z,946.59
2018-10-01T09:54:33.692Z,946.63
2018-10-01T09:55:33.693Z,946.59
2018-10-01T09:56:33.753Z,946.62
2018-10-01T09:57:33.684Z,946.60
2018-10-01T09:58:33.695Z,946.63
2018-10-01T09:59:33.677Z,946.63
2018-10-01T10:00:33.673Z,946.66
2018-10-01T10:01:33.673Z,946.65
2018-10-01T10:02:33.721Z,946.65
2018-10-01T10:03:33.663Z,946.63
2018-10-01T10:04:33.734Z,946.68
2018-10-01T10:05:33.654Z,946.69
2018-10-01T10:06:33.648Z,946.71
2018-10-01T10:07:33.649Z,946.70
2018-10-01T10:08:33.731Z,946.73
2018-10-01T10:09:33.642Z,946.69
2018-10-01T10:10:33.655Z,946.72
2018-10-01T10:11:33.685Z,946.74
2018-10-01T10:12:33.631Z,946.69
2018-10-01T10:13:33.628Z,946.70
2018-10-01T10:14:33.694Z,946.68
2018-10-01T10:15:33.626Z,946.71
2018-10-01T10:16:33.727Z,946.69
2018-10-01T10:17:33.623Z,946.72
2018-10-01T10:18:33.612Z,946.74
2018-10-01T10:19:33.618Z,946.73
2018-10-01T10:20:33.724Z,946.72
2018-10-01T10:21:33.604Z,946.72
2018-10-01T10:22:33.675Z,946.76
2018-10-01T10:23:33.598Z,946.74
2018-10-01T10:24:33.599Z,946.76
2018-10-01T10:25:33.597Z,946.75
2018-10-01T10:26:33.605Z,946.76
2018-10-01T10:27:33.587Z,946.72
2018-10-01T10:28:33.678Z,946.72
2018-10-01T10:29:33.577Z,946.78
2018-10-01T10:30:33.586Z,946.77
2018-10-01T10:31:33.581Z,946.76
2018-10-01T10:32:33.642Z,946.77
2018-10-01T10:33:33.576Z,946.76
2018-10-01T10:34:33.615Z,946.76
2018-10-01T10:35:33.635Z,946.73
2018-10-01T10:36:33.626Z,946.69
2018-10-01T10:37:33.564Z,946.73
2018-10-01T10:38:33.609Z,946.68
2018-10-01T10:39:33.610Z,946.73
2018-10-01T10:40:33.558Z,946.71
2018-10-01T10:41:33.589Z,946.74
2018-10-01T10:42:33.555Z,946.74
2018-10-01T10:43:33.563Z,946.72
2018-10-01T10:44:33.575Z,946.75
2018-10-01T10:45:33.552Z,946.76
2018-10-01T10:46:33.544Z,946.77
2018-10-01T10:47:33.544Z,946.77
2018-10-01T10:48:33.544Z,946.78
2018-10-01T10:49:33.540Z,946.82
2018-10-01T10:50:33.565Z,946.80
2018-10-01T10:51:33.536Z,946.82
2018-10-01T10:52:33.537Z,946.84
2018-10-01T10:53:33.536Z,946.80
2018-10-01T10:54:33.533Z,946.85
2018-10-01T10:55:33.534Z,946.82
2018-10-01T10:56:33.587Z,946.83
2018-10-01T10:57:33.532Z,946.81
2018-10-01T10:58:33.542Z,946.83
2018-10-01T10:59:33.525Z,946.81
2018-10-01T11:00:33.526Z,946.80
2018-10-01T11:01:33.530Z,946.79
2018-10-01T11:02:33.576Z,946.77
2018-10-01T11:03:33.526Z,946.77
2018-10-01T11:04:33.521Z,946.77
2018-10-01T11:05:33.525Z,946.81
2018-10-01T11:06:33.522Z,946.76
2018-10-01T11:07:33.520Z,946.79
2018-10-01T11:08:33.575Z,946.79
2018-10-01T11:09:33.524Z,946.77
2018-10-01T11:10:33.513Z,946.80
2018-10-01T11:11:33.519Z,946.79
2018-10-01T11:12:33.515Z,946.84
2018-10-01T11:13:33.516Z,946.84
2018-10-01T11:14:33.686Z,946.84
2018-10-01T11:15:33.517Z,946.80
2018-10-01T11:16:33.513Z,946.79
2018-10-01T11:17:33.605Z,946.82
2018-10-01T11:18:33.528Z,946.79
2018-10-01T11:19:33.559Z,946.82
2018-10-01T11:20:33.609Z,946.78
2018-10-01T11:21:33.612Z,946.78
2018-10-01T11:22:33.539Z,946.82
2018-10-01T11:23:33.620Z,946.83
2018-10-01T11:24:33.504Z,946.83
2018-10-01T11:25:33.579Z,946.80
2018-10-01T11:26:33.501Z,946.85
2018-10-01T11:27:33.556Z,946.81
2018-10-01T11:28:33.505Z,946.77
2018-10-01T11:29:33.500Z,946.78
2018-10-01T11:30:33.505Z,946.80
2018-10-01T11:31:33.555Z,946.83
2018-10-01T11:32:33.496Z,946.80
2018-10-01T11:33:33.583Z,946.85
2018-10-01T11:34:33.506Z,946.85
2018-10-01T11:35:33.494Z,946.86
2018-10-01T11:36:33.543Z,946.85
2018-10-01T11:37:33.492Z,946.86
2018-10-01T11:38:33.491Z,946.89
2018-10-01T11:39:33.486Z,946.88
2018-10-01T11:40:33.490Z,946.90
2018-10-01T11:41:33.482Z,946.90
2018-10-01T11:42:33.484Z,946.93
2018-10-01T11:43:33.482Z,946.92
2018-10-01T11:44:33.469Z,946.91
2018-10-01T11:45:33.473Z,946.93
2018-10-01T11:46:33.470Z,946.87
2018-10-01T11:47:33.466Z,946.89
2018-10-01T11:48:33.474Z,946.89
2018-10-01T11:49:33.468Z,946.92
2018-10-01T11:50:33.502Z,946.90
2018-10-01T11:51:33.575Z,946.87
2018-10-01T11:52:33.456Z,946.87
2018-10-01T11:53:33.453Z,946.86
2018-10-01T11:54:33.454Z,946.84
2018-10-01T11:55:33.446Z,946.88
2018-10-01T11:56:33.446Z,946.90
2018-10-01T11:57:33.483Z,946.89
2018-10-01T11:58:33.442Z,946.88
2018-10-01T11:59:33.438Z,946.85
2018-10-01T12:00:33.433Z,946.88
2018-10-01T12:01:33.428Z,946.85
2018-10-01T12:02:33.533Z,946.87
2018-10-01T12:03:33.464Z,946.89
2018-10-01T12:04:33.424Z,946.86
2018-10-01T12:05:33.424Z,946.88
2018-10-01T12:06:33.415Z,946.90
2018-10-01T12:07:33.432Z,946.94
2018-10-01T12:08:33.415Z,946.92
2018-10-01T12:09:33.493Z,946.96
2018-10-01T12:10:33.439Z,946.92
2018-10-01T12:11:33.403Z,946.91
2018-10-01T12:12:33.402Z,946.95
2018-10-01T12:13:33.403Z,946.94
2018-10-01T12:14:33.395Z,946.92
2018-10-01T12:15:33.400Z,946.91
2018-10-01T12:16:33.392Z,946.89
2018-10-01T12:17:33.384Z,946.91
2018-10-01T12:18:33.376Z,946.93
2018-10-01T12:19:33.386Z,946.94
2018-10-01T12:20:33.381Z,946.96
2018-10-01T12:21:33.387Z,946.95
2018-10-01T12:22:33.375Z,946.95
2018-10-01T12:23:33.370Z,946.95
2018-10-01T12:24:33.374Z,946.93
2018-10-01T12:25:33.395Z,946.93
2018-10-01T12:26:33.363Z,946.93
2018-10-01T12:27:33.383Z,946.94
2018-10-01T12:28:33.360Z,946.96
2018-10-01T12:29:33.355Z,946.94
2018-10-01T12:30:33.357Z,947.01
2018-10-01T12:31:33.356Z,946.97
2018-10-01T12:32:33.374Z,946.99
2018-10-01T12:33:33.369Z,946.95
2018-10-01T12:34:33.347Z,946.96
2018-10-01T12:35:33.345Z,946.97
2018-10-01T12:36:33.387Z,946.98
2018-10-01T12:37:33.337Z,946.94
2018-10-01T12:38:33.331Z,946.95
2018-10-01T12:39:33.392Z,946.93
2018-10-01T12:40:33.343Z,946.93
2018-10-01T12:41:33.318Z,946.98
2018-10-01T12:42:33.327Z,946.97
2018-10-01T12:43:33.321Z,946.99
2018-10-01T12:44:33.324Z,946.98
2018-10-01T12:45:33.372Z,946.99
2018-10-01T12:46:33.315Z,947.02
2018-10-01T12:47:33.308Z,947.06
2018-10-01T12:48:33.307Z,947.06
2018-10-01T12:49:33.304Z,947.06
2018-10-01T12:50:33.473Z,946.99
2018-10-01T12:51:33.325Z,946.99
2018-10-01T12:52:33.292Z,947.00
2018-10-01T12:53:33.297Z,947.02
2018-10-01T12:54:33.288Z,946.98
2018-10-01T12:55:33.285Z,947.04
2018-10-01T12:56:33.285Z,947.03
2018-10-01T12:57:33.384Z,947.04
2018-10-01T12:58:33.272Z,947.08
2018-10-01T12:59:33.362Z,947.02
2018-10-01T13:00:33.272Z,947.03
2018-10-01T13:01:33.267Z,947.01
2018-10-01T13:02:33.260Z,947.06
2018-10-01T13:03:33.261Z,947.06
2018-10-01T13:04:33.258Z,947.07
2018-10-01T13:05:33.250Z,947.07
2018-10-01T13:06:33.263Z,947.05
2018-10-01T13:07:33.245Z,947.07
2018-10-01T13:08:33.240Z,947.13
2018-10-01T13:09:33.241Z,947.10
2018-10-01T13:10:33.234Z,947.07
2018-10-01T13:11:33.229Z,947.09
2018-10-01T13:12:33.241Z,947.08
2018-10-01T13:13:33.224Z,947.05
2018-10-01T13:14:33.220Z,947.05
2018-10-01T13:15:33.212Z,947.11
2018-10-01T13:16:33.214Z,947.07
2018-10-01T13:17:33.210Z,947.12